sensor_id;sensor_type;location;lat;lon;timestamp;temperature;humidity
29813;DHT22;16707;48.106;11.548;2022-07-06T00:02:18;16.70;99.90
29813;DHT22;16707;48.106;11.548;2022-07-06T00:04:46;16.70;99.90
29813;DHT22;16707;48.106;11.548;2022-07-06T00:07:18;16.70;99.90
29813;DHT22;16707;48.106;11.548;2022-07-06T00:09:45;16.80;99.90
29813;DHT22;16707;48.106;11.548;2022-07-06T00:12:14;16.90;99.90
29813;DHT22;16707;48.106;11.548;2022-07-06T00:14:46;16.90;99.90
29813;DHT22;16707;48.106;11.548;2022-07-06T00:17:15;16.90;99.90
29813;DHT22;16707;48.106;11.548;2022-07-06T00:19:49;16.90;99.90
29813;DHT22;16707;48.106;11.548;2022-07-06T00:22:20;16.90;99.90
29813;DHT22;16707;48.106;11.548;2022-07-06T00:24:50;17.00;99.90
29813;DHT22;16707;48.106;11.548;2022-07-06T00:27:17;16.90;99.90
29813;DHT22;16707;48.106;11.548;2022-07-06T00:29:45;16.90;99.90
29813;DHT22;16707;48.106;11.548;2022-07-06T00:32:15;16.70;99.90
29813;DHT22;16707;48.106;11.548;2022-07-06T00:34:42;16.70;99.90
29813;DHT22;16707;48.106;11.548;2022-07-06T00:37:09;16.70;99.90
29813;DHT22;16707;48.106;11.548;2022-07-06T00:39:38;16.70;99.90
29813;DHT22;16707;48.106;11.548;2022-07-06T00:42:06;16.60;99.90
29813;DHT22;16707;48.106;11.548;2022-07-06T00:44:34;16.60;99.90
29813;DHT22;16707;48.106;11.548;2022-07-06T00:47:04;16.60;99.90
29813;DHT22;16707;48.106;11.548;2022-07-06T00:49:35;16.60;99.90
29813;DHT22;16707;48.106;11.548;2022-07-06T00:52:28;16.60;99.90
29813;DHT22;16707;48.106;11.548;2022-07-06T00:55:04;16.50;99.90
29813;DHT22;16707;48.106;11.548;2022-07-06T00:57:34;16.50;99.90
29813;DHT22;16707;48.106;11.548;2022-07-06T01:00:02;16.60;99.90
29813;DHT22;16707;48.106;11.548;2022-07-06T01:02:31;16.60;99.90
29813;DHT22;16707;48.106;11.548;2022-07-06T01:04:58;16.70;99.90
29813;DHT22;16707;48.106;11.548;2022-07-06T01:07:31;16.70;99.90
29813;DHT22;16707;48.106;11.548;2022-07-06T01:10:00;16.70;99.90
29813;DHT22;16707;48.106;11.548;2022-07-06T01:12:32;16.70;99.90
29813;DHT22;16707;48.106;11.548;2022-07-06T01:15:02;16.70;99.90
29813;DHT22;16707;48.106;11.548;2022-07-06T01:17:31;16.70;99.90
29813;DHT22;16707;48.106;11.548;2022-07-06T01:20:08;16.70;99.90
29813;DHT22;16707;48.106;11.548;2022-07-06T01:22:39;16.50;99.90
29813;DHT22;16707;48.106;11.548;2022-07-06T01:25:08;16.30;99.90
29813;DHT22;16707;48.106;11.548;2022-07-06T01:27:45;16.20;99.90
29813;DHT22;16707;48.106;11.548;2022-07-06T01:30:14;16.00;99.90
29813;DHT22;16707;48.106;11.548;2022-07-06T01:32:43;16.00;99.90
29813;DHT22;16707;48.106;11.548;2022-07-06T01:35:13;15.90;99.90
29813;DHT22;16707;48.106;11.548;2022-07-06T01:37:51;15.70;99.90
29813;DHT22;16707;48.106;11.548;2022-07-06T01:40:18;15.70;99.90
29813;DHT22;16707;48.106;11.548;2022-07-06T01:42:50;15.60;99.90
29813;DHT22;16707;48.106;11.548;2022-07-06T01:45:19;15.50;99.90
29813;DHT22;16707;48.106;11.548;2022-07-06T01:47:50;15.70;99.90
29813;DHT22;16707;48.106;11.548;2022-07-06T01:50:18;15.60;99.90
29813;DHT22;16707;48.106;11.548;2022-07-06T01:52:48;15.60;99.90
29813;DHT22;16707;48.106;11.548;2022-07-06T01:55:17;15.50;99.90
29813;DHT22;16707;48.106;11.548;2022-07-06T01:57:50;15.40;99.90
29813;DHT22;16707;48.106;11.548;2022-07-06T02:00:19;15.40;99.90
29813;DHT22;16707;48.106;11.548;2022-07-06T02:02:46;15.30;99.90
29813;DHT22;16707;48.106;11.548;2022-07-06T02:05:17;15.30;99.90
29813;DHT22;16707;48.106;11.548;2022-07-06T02:07:45;15.30;99.90
29813;DHT22;16707;48.106;11.548;2022-07-06T02:10:12;15.20;99.90
29813;DHT22;16707;48.106;11.548;2022-07-06T02:12:39;15.20;99.90
29813;DHT22;16707;48.106;11.548;2022-07-06T02:15:09;15.10;99.90
29813;DHT22;16707;48.106;11.548;2022-07-06T02:17:36;15.10;99.90
29813;DHT22;16707;48.106;11.548;2022-07-06T02:20:05;15.10;99.90
29813;DHT22;16707;48.106;11.548;2022-07-06T02:22:38;15.00;99.90
29813;DHT22;16707;48.106;11.548;2022-07-06T02:25:11;15.10;99.90
29813;DHT22;16707;48.106;11.548;2022-07-06T02:27:38;15.10;99.90
29813;DHT22;16707;48.106;11.548;2022-07-06T02:30:06;15.10;99.90
29813;DHT22;16707;48.106;11.548;2022-07-06T02:32:43;15.10;99.90
29813;DHT22;16707;48.106;11.548;2022-07-06T02:35:10;15.00;99.90
29813;DHT22;16707;48.106;11.548;2022-07-06T02:37:39;14.90;99.90
29813;DHT22;16707;48.106;11.548;2022-07-06T02:40:07;14.90;99.90
29813;DHT22;16707;48.106;11.548;2022-07-06T02:42:38;14.90;99.90
29813;DHT22;16707;48.106;11.548;2022-07-06T02:45:10;14.90;99.90
29813;DHT22;16707;48.106;11.548;2022-07-06T02:47:46;14.80;99.90
29813;DHT22;16707;48.106;11.548;2022-07-06T02:50:14;14.80;99.90
29813;DHT22;16707;48.106;11.548;2022-07-06T02:52:46;14.80;99.90
29813;DHT22;16707;48.106;11.548;2022-07-06T02:55:20;14.70;99.90
29813;DHT22;16707;48.106;11.548;2022-07-06T02:57:47;14.70;99.90
29813;DHT22;16707;48.106;11.548;2022-07-06T03:00:21;14.60;99.90
29813;DHT22;16707;48.106;11.548;2022-07-06T03:02:54;14.60;99.90
29813;DHT22;16707;48.106;11.548;2022-07-06T03:05:21;14.50;99.90
29813;DHT22;16707;48.106;11.548;2022-07-06T03:07:53;14.50;99.90
29813;DHT22;16707;48.106;11.548;2022-07-06T03:10:23;14.60;99.90
29813;DHT22;16707;48.106;11.548;2022-07-06T03:12:52;14.70;99.90
29813;DHT22;16707;48.106;11.548;2022-07-06T03:15:19;14.70;99.90
29813;DHT22;16707;48.106;11.548;2022-07-06T03:17:46;14.70;99.90
29813;DHT22;16707;48.106;11.548;2022-07-06T03:20:13;14.70;99.90
29813;DHT22;16707;48.106;11.548;2022-07-06T03:22:40;14.70;99.90
29813;DHT22;16707;48.106;11.548;2022-07-06T03:25:09;14.70;99.90
29813;DHT22;16707;48.106;11.548;2022-07-06T03:27:37;14.70;99.90
29813;DHT22;16707;48.106;11.548;2022-07-06T03:30:05;14.70;99.90
29813;DHT22;16707;48.106;11.548;2022-07-06T03:32:36;14.60;99.90
29813;DHT22;16707;48.106;11.548;2022-07-06T03:35:07;14.60;99.90
29813;DHT22;16707;48.106;11.548;2022-07-06T03:37:35;14.50;99.90
29813;DHT22;16707;48.106;11.548;2022-07-06T03:40:02;14.50;99.90
29813;DHT22;16707;48.106;11.548;2022-07-06T03:42:40;14.50;99.90
29813;DHT22;16707;48.106;11.548;2022-07-06T03:45:09;14.60;99.90
29813;DHT22;16707;48.106;11.548;2022-07-06T03:47:37;14.60;99.90
29813;DHT22;16707;48.106;11.548;2022-07-06T03:50:07;14.60;99.90
29813;DHT22;16707;48.106;11.548;2022-07-06T03:52:37;14.70;99.90
29813;DHT22;16707;48.106;11.548;2022-07-06T03:55:17;14.80;99.90
29813;DHT22;16707;48.106;11.548;2022-07-06T03:57:45;14.80;99.90
29813;DHT22;16707;48.106;11.548;2022-07-06T04:00:16;14.80;99.90
29813;DHT22;16707;48.106;11.548;2022-07-06T04:02:43;14.90;99.90
29813;DHT22;16707;48.106;11.548;2022-07-06T04:05:10;15.00;99.90
29813;DHT22;16707;48.106;11.548;2022-07-06T04:07:41;15.30;99.90
29813;DHT22;16707;48.106;11.548;2022-07-06T04:10:08;15.50;99.90
29813;DHT22;16707;48.106;11.548;2022-07-06T04:12:40;15.70;99.90
29813;DHT22;16707;48.106;11.548;2022-07-06T04:15:12;16.00;99.90
29813;DHT22;16707;48.106;11.548;2022-07-06T04:17:45;16.10;99.90
29813;DHT22;16707;48.106;11.548;2022-07-06T04:20:18;15.90;99.90
29813;DHT22;16707;48.106;11.548;2022-07-06T04:22:48;15.90;99.90
29813;DHT22;16707;48.106;11.548;2022-07-06T04:25:16;15.90;99.90
29813;DHT22;16707;48.106;11.548;2022-07-06T04:27:48;16.10;99.90
29813;DHT22;16707;48.106;11.548;2022-07-06T04:30:15;16.40;99.90
29813;DHT22;16707;48.106;11.548;2022-07-06T04:32:48;16.60;99.90
29813;DHT22;16707;48.106;11.548;2022-07-06T04:35:15;16.60;99.90
29813;DHT22;16707;48.106;11.548;2022-07-06T04:37:42;16.70;99.90
29813;DHT22;16707;48.106;11.548;2022-07-06T04:40:14;16.70;99.90
29813;DHT22;16707;48.106;11.548;2022-07-06T04:42:43;16.70;99.90
29813;DHT22;16707;48.106;11.548;2022-07-06T04:45:12;16.90;99.90
29813;DHT22;16707;48.106;11.548;2022-07-06T04:47:39;17.10;99.90
29813;DHT22;16707;48.106;11.548;2022-07-06T04:50:09;17.20;99.90
29813;DHT22;16707;48.106;11.548;2022-07-06T04:52:37;17.30;99.90
29813;DHT22;16707;48.106;11.548;2022-07-06T04:55:05;17.40;99.90
29813;DHT22;16707;48.106;11.548;2022-07-06T04:57:35;19.70;93.70
29813;DHT22;16707;48.106;11.548;2022-07-06T05:00:06;21.00;87.70
29813;DHT22;16707;48.106;11.548;2022-07-06T05:02:35;20.40;84.60
29813;DHT22;16707;48.106;11.548;2022-07-06T05:05:03;20.10;85.60
29813;DHT22;16707;48.106;11.548;2022-07-06T05:07:30;19.60;88.90
29813;DHT22;16707;48.106;11.548;2022-07-06T05:10:03;20.50;89.70
29813;DHT22;16707;48.106;11.548;2022-07-06T05:12:34;23.70;73.10
29813;DHT22;16707;48.106;11.548;2022-07-06T05:15:08;25.50;63.20
29813;DHT22;16707;48.106;11.548;2022-07-06T05:17:38;27.70;56.60
29813;DHT22;16707;48.106;11.548;2022-07-06T05:20:25;29.80;51.10
29813;DHT22;16707;48.106;11.548;2022-07-06T05:22:52;30.60;47.80
29813;DHT22;16707;48.106;11.548;2022-07-06T05:25:20;31.80;45.70
29813;DHT22;16707;48.106;11.548;2022-07-06T05:27:50;32.30;43.70
29813;DHT22;16707;48.106;11.548;2022-07-06T05:30:17;32.60;44.50
29813;DHT22;16707;48.106;11.548;2022-07-06T05:32:48;29.90;46.00
29813;DHT22;16707;48.106;11.548;2022-07-06T05:35:15;29.30;49.70
29813;DHT22;16707;48.106;11.548;2022-07-06T05:37:43;29.30;45.40
29813;DHT22;16707;48.106;11.548;2022-07-06T05:40:11;29.00;49.30
29813;DHT22;16707;48.106;11.548;2022-07-06T05:42:44;27.70;48.00
29813;DHT22;16707;48.106;11.548;2022-07-06T05:45:11;27.90;50.60
29813;DHT22;16707;48.106;11.548;2022-07-06T05:47:38;26.90;50.00
29813;DHT22;16707;48.106;11.548;2022-07-06T05:50:24;28.20;50.50
29813;DHT22;16707;48.106;11.548;2022-07-06T05:52:56;29.30;45.60
29813;DHT22;16707;48.106;11.548;2022-07-06T05:55:25;28.40;46.50
29813;DHT22;16707;48.106;11.548;2022-07-06T05:57:53;27.50;49.40
29813;DHT22;16707;48.106;11.548;2022-07-06T06:00:22;28.90;46.70
29813;DHT22;16707;48.106;11.548;2022-07-06T06:02:49;30.20;43.80
29813;DHT22;16707;48.106;11.548;2022-07-06T06:05:17;27.20;48.70
29813;DHT22;16707;48.106;11.548;2022-07-06T06:07:52;28.80;48.60
29813;DHT22;16707;48.106;11.548;2022-07-06T06:10:22;32.00;43.00
29813;DHT22;16707;48.106;11.548;2022-07-06T06:12:50;33.20;40.20
29813;DHT22;16707;48.106;11.548;2022-07-06T06:15:20;34.50;38.80
29813;DHT22;16707;48.106;11.548;2022-07-06T06:17:47;36.10;38.10
29813;DHT22;16707;48.106;11.548;2022-07-06T06:20:20;36.90;35.70
29813;DHT22;16707;48.106;11.548;2022-07-06T06:22:51;37.70;34.00
29813;DHT22;16707;48.106;11.548;2022-07-06T06:25:27;38.40;32.40
29813;DHT22;16707;48.106;11.548;2022-07-06T06:28:02;39.10;30.80
29813;DHT22;16707;48.106;11.548;2022-07-06T06:30:37;39.50;30.70
29813;DHT22;16707;48.106;11.548;2022-07-06T06:33:09;39.70;29.50
29813;DHT22;16707;48.106;11.548;2022-07-06T06:35:38;40.20;29.30
29813;DHT22;16707;48.106;11.548;2022-07-06T06:38:28;38.70;29.30
29813;DHT22;16707;48.106;11.548;2022-07-06T06:40:56;37.60;30.00
29813;DHT22;16707;48.106;11.548;2022-07-06T06:43:24;37.40;30.20
29813;DHT22;16707;48.106;11.548;2022-07-06T06:45:53;36.60;30.40
29813;DHT22;16707;48.106;11.548;2022-07-06T06:48:21;35.90;32.10
29813;DHT22;16707;48.106;11.548;2022-07-06T06:50:48;36.20;32.00
29813;DHT22;16707;48.106;11.548;2022-07-06T06:53:21;36.90;30.90
29813;DHT22;16707;48.106;11.548;2022-07-06T06:55:51;37.90;30.00
29813;DHT22;16707;48.106;11.548;2022-07-06T06:58:18;37.80;29.40
29813;DHT22;16707;48.106;11.548;2022-07-06T07:00:48;37.20;29.80
29813;DHT22;16707;48.106;11.548;2022-07-06T07:03:17;36.80;30.80
29813;DHT22;16707;48.106;11.548;2022-07-06T07:05:44;38.00;29.90
29813;DHT22;16707;48.106;11.548;2022-07-06T07:08:22;36.90;30.80
29813;DHT22;16707;48.106;11.548;2022-07-06T07:10:49;38.10;30.30
29813;DHT22;16707;48.106;11.548;2022-07-06T07:13:16;38.40;29.00
29813;DHT22;16707;48.106;11.548;2022-07-06T07:15:43;38.30;29.40
29813;DHT22;16707;48.106;11.548;2022-07-06T07:18:10;39.10;28.60
29813;DHT22;16707;48.106;11.548;2022-07-06T07:20:38;39.30;28.30
29813;DHT22;16707;48.106;11.548;2022-07-06T07:23:05;38.30;28.90
29813;DHT22;16707;48.106;11.548;2022-07-06T07:25:33;38.50;28.60
29813;DHT22;16707;48.106;11.548;2022-07-06T07:28:04;37.30;30.00
29813;DHT22;16707;48.106;11.548;2022-07-06T07:30:31;36.70;29.30
29813;DHT22;16707;48.106;11.548;2022-07-06T07:32:58;34.10;33.20
29813;DHT22;16707;48.106;11.548;2022-07-06T07:35:27;31.40;36.90
29813;DHT22;16707;48.106;11.548;2022-07-06T07:37:54;29.50;40.60
29813;DHT22;16707;48.106;11.548;2022-07-06T07:40:24;28.30;43.80
29813;DHT22;16707;48.106;11.548;2022-07-06T07:42:56;27.30;46.20
29813;DHT22;16707;48.106;11.548;2022-07-06T07:45:23;26.50;46.00
29813;DHT22;16707;48.106;11.548;2022-07-06T07:47:50;25.50;48.30
29813;DHT22;16707;48.106;11.548;2022-07-06T07:50:18;25.40;48.90
29813;DHT22;16707;48.106;11.548;2022-07-06T07:52:48;25.00;50.50
29813;DHT22;16707;48.106;11.548;2022-07-06T07:55:18;24.60;50.90
29813;DHT22;16707;48.106;11.548;2022-07-06T07:57:49;24.30;51.70
29813;DHT22;16707;48.106;11.548;2022-07-06T08:00:21;24.00;52.30
29813;DHT22;16707;48.106;11.548;2022-07-06T08:02:50;23.80;53.40
29813;DHT22;16707;48.106;11.548;2022-07-06T08:05:17;23.10;51.70
29813;DHT22;16707;48.106;11.548;2022-07-06T08:07:44;23.00;52.20
29813;DHT22;16707;48.106;11.548;2022-07-06T08:10:18;22.80;52.40
29813;DHT22;16707;48.106;11.548;2022-07-06T08:12:45;22.50;54.00
29813;DHT22;16707;48.106;11.548;2022-07-06T08:15:15;22.30;55.80
29813;DHT22;16707;48.106;11.548;2022-07-06T08:17:43;22.20;54.20
29813;DHT22;16707;48.106;11.548;2022-07-06T08:20:11;22.20;55.50
29813;DHT22;16707;48.106;11.548;2022-07-06T08:22:38;22.10;55.60
29813;DHT22;16707;48.106;11.548;2022-07-06T08:25:06;22.20;55.00
29813;DHT22;16707;48.106;11.548;2022-07-06T08:27:37;22.10;55.60
29813;DHT22;16707;48.106;11.548;2022-07-06T08:30:05;22.20;56.20
29813;DHT22;16707;48.106;11.548;2022-07-06T08:32:37;22.30;56.00
29813;DHT22;16707;48.106;11.548;2022-07-06T08:35:05;22.40;56.30
29813;DHT22;16707;48.106;11.548;2022-07-06T08:37:33;22.40;55.70
29813;DHT22;16707;48.106;11.548;2022-07-06T08:40:01;22.50;56.10
29813;DHT22;16707;48.106;11.548;2022-07-06T08:42:31;22.50;56.90
29813;DHT22;16707;48.106;11.548;2022-07-06T08:45:00;22.60;56.90
29813;DHT22;16707;48.106;11.548;2022-07-06T08:47:36;22.70;57.00
29813;DHT22;16707;48.106;11.548;2022-07-06T08:50:05;22.70;56.50
29813;DHT22;16707;48.106;11.548;2022-07-06T08:52:34;22.80;57.20
29813;DHT22;16707;48.106;11.548;2022-07-06T08:55:05;22.80;54.20
29813;DHT22;16707;48.106;11.548;2022-07-06T08:57:39;22.70;56.20
29813;DHT22;16707;48.106;11.548;2022-07-06T09:00:08;23.00;56.60
29813;DHT22;16707;48.106;11.548;2022-07-06T09:02:37;23.10;57.50
29813;DHT22;16707;48.106;11.548;2022-07-06T09:05:08;23.30;56.60
29813;DHT22;16707;48.106;11.548;2022-07-06T09:07:37;23.20;57.80
29813;DHT22;16707;48.106;11.548;2022-07-06T09:10:08;23.60;55.60
29813;DHT22;16707;48.106;11.548;2022-07-06T09:12:35;23.90;54.40
29813;DHT22;16707;48.106;11.548;2022-07-06T09:15:03;23.80;51.50
29813;DHT22;16707;48.106;11.548;2022-07-06T09:17:31;24.00;54.90
29813;DHT22;16707;48.106;11.548;2022-07-06T09:20:00;24.00;52.40
29813;DHT22;16707;48.106;11.548;2022-07-06T09:22:29;24.10;51.90
29813;DHT22;16707;48.106;11.548;2022-07-06T09:25:06;24.30;52.50
29813;DHT22;16707;48.106;11.548;2022-07-06T09:27:37;24.00;51.60
29813;DHT22;16707;48.106;11.548;2022-07-06T09:30:09;23.80;54.20
29813;DHT22;16707;48.106;11.548;2022-07-06T09:32:43;24.20;51.20
29813;DHT22;16707;48.106;11.548;2022-07-06T09:35:23;24.40;51.70
29813;DHT22;16707;48.106;11.548;2022-07-06T09:38:04;25.10;50.90
29813;DHT22;16707;48.106;11.548;2022-07-06T09:40:34;25.10;49.10
29813;DHT22;16707;48.106;11.548;2022-07-06T09:43:15;25.30;50.30
29813;DHT22;16707;48.106;11.548;2022-07-06T09:45:46;25.10;49.30
29813;DHT22;16707;48.106;11.548;2022-07-06T09:48:19;25.10;52.20
29813;DHT22;16707;48.106;11.548;2022-07-06T09:50:50;25.40;49.10
29813;DHT22;16707;48.106;11.548;2022-07-06T09:53:19;25.20;48.70
29813;DHT22;16707;48.106;11.548;2022-07-06T09:55:49;25.40;48.40
29813;DHT22;16707;48.106;11.548;2022-07-06T09:58:18;25.30;49.90
29813;DHT22;16707;48.106;11.548;2022-07-06T10:00:49;25.00;47.20
29813;DHT22;16707;48.106;11.548;2022-07-06T10:03:17;24.70;48.90
29813;DHT22;16707;48.106;11.548;2022-07-06T10:05:46;24.80;50.90
29813;DHT22;16707;48.106;11.548;2022-07-06T10:08:17;24.80;49.30
29813;DHT22;16707;48.106;11.548;2022-07-06T10:10:44;24.70;50.10
29813;DHT22;16707;48.106;11.548;2022-07-06T10:13:14;24.70;51.10
29813;DHT22;16707;48.106;11.548;2022-07-06T10:15:46;24.50;48.60
29813;DHT22;16707;48.106;11.548;2022-07-06T10:18:20;24.80;49.20
29813;DHT22;16707;48.106;11.548;2022-07-06T10:20:50;24.90;48.70
29813;DHT22;16707;48.106;11.548;2022-07-06T10:23:26;24.80;48.00
29813;DHT22;16707;48.106;11.548;2022-07-06T10:26:02;24.80;50.80
29813;DHT22;16707;48.106;11.548;2022-07-06T10:28:33;25.00;50.60
29813;DHT22;16707;48.106;11.548;2022-07-06T10:31:10;25.10;51.00
29813;DHT22;16707;48.106;11.548;2022-07-06T10:33:41;25.20;48.30
29813;DHT22;16707;48.106;11.548;2022-07-06T10:36:14;25.00;49.50
29813;DHT22;16707;48.106;11.548;2022-07-06T10:38:48;24.90;48.70
29813;DHT22;16707;48.106;11.548;2022-07-06T10:41:29;24.60;49.70
29813;DHT22;16707;48.106;11.548;2022-07-06T10:43:56;24.90;49.90
29813;DHT22;16707;48.106;11.548;2022-07-06T10:46:27;25.00;49.40
29813;DHT22;16707;48.106;11.548;2022-07-06T10:48:56;25.00;52.10
29813;DHT22;16707;48.106;11.548;2022-07-06T10:51:26;25.10;49.80
29813;DHT22;16707;48.106;11.548;2022-07-06T10:53:58;25.00;47.80
29813;DHT22;16707;48.106;11.548;2022-07-06T10:56:35;24.80;47.90
29813;DHT22;16707;48.106;11.548;2022-07-06T10:59:09;24.90;50.20
29813;DHT22;16707;48.106;11.548;2022-07-06T11:01:37;25.00;48.60
29813;DHT22;16707;48.106;11.548;2022-07-06T11:04:06;24.60;49.20
29813;DHT22;16707;48.106;11.548;2022-07-06T11:06:36;24.60;49.70
29813;DHT22;16707;48.106;11.548;2022-07-06T11:09:07;24.70;48.90
29813;DHT22;16707;48.106;11.548;2022-07-06T11:11:41;24.90;49.40
29813;DHT22;16707;48.106;11.548;2022-07-06T11:14:12;25.30;48.50
29813;DHT22;16707;48.106;11.548;2022-07-06T11:17:00;25.60;47.00
29813;DHT22;16707;48.106;11.548;2022-07-06T11:19:29;25.80;47.60
29813;DHT22;16707;48.106;11.548;2022-07-06T11:21:58;25.30;46.40
29813;DHT22;16707;48.106;11.548;2022-07-06T11:24:37;25.30;48.60
29813;DHT22;16707;48.106;11.548;2022-07-06T11:27:06;25.30;46.30
29813;DHT22;16707;48.106;11.548;2022-07-06T11:29:35;25.40;46.10
29813;DHT22;16707;48.106;11.548;2022-07-06T11:32:08;25.20;46.00
29813;DHT22;16707;48.106;11.548;2022-07-06T11:34:37;25.40;47.00
29813;DHT22;16707;48.106;11.548;2022-07-06T11:37:07;25.50;46.90
29813;DHT22;16707;48.106;11.548;2022-07-06T11:39:38;25.80;46.60
29813;DHT22;16707;48.106;11.548;2022-07-06T11:42:07;26.10;45.70
29813;DHT22;16707;48.106;11.548;2022-07-06T11:44:35;26.10;46.30
29813;DHT22;16707;48.106;11.548;2022-07-06T11:47:04;26.20;46.90
29813;DHT22;16707;48.106;11.548;2022-07-06T11:49:33;26.10;47.40
29813;DHT22;16707;48.106;11.548;2022-07-06T11:52:05;25.80;44.80
29813;DHT22;16707;48.106;11.548;2022-07-06T11:54:33;25.70;45.30
29813;DHT22;16707;48.106;11.548;2022-07-06T11:57:03;25.80;46.70
29813;DHT22;16707;48.106;11.548;2022-07-06T11:59:33;26.10;46.40
29813;DHT22;16707;48.106;11.548;2022-07-06T12:02:08;26.10;45.50
29813;DHT22;16707;48.106;11.548;2022-07-06T12:04:37;26.30;44.50
29813;DHT22;16707;48.106;11.548;2022-07-06T12:07:06;26.60;45.60
29813;DHT22;16707;48.106;11.548;2022-07-06T12:09:37;26.70;44.40
29813;DHT22;16707;48.106;11.548;2022-07-06T12:12:06;26.80;45.90
29813;DHT22;16707;48.106;11.548;2022-07-06T12:14:36;26.40;44.70
29813;DHT22;16707;48.106;11.548;2022-07-06T12:17:06;26.00;46.20
29813;DHT22;16707;48.106;11.548;2022-07-06T12:19:37;25.70;46.30
29813;DHT22;16707;48.106;11.548;2022-07-06T12:22:06;25.50;48.10
29813;DHT22;16707;48.106;11.548;2022-07-06T12:24:36;25.70;47.50
29813;DHT22;16707;48.106;11.548;2022-07-06T12:27:11;25.50;46.60
29813;DHT22;16707;48.106;11.548;2022-07-06T12:29:39;25.60;46.60
29813;DHT22;16707;48.106;11.548;2022-07-06T12:32:14;25.30;45.70
29813;DHT22;16707;48.106;11.548;2022-07-06T12:34:45;25.40;46.30
29813;DHT22;16707;48.106;11.548;2022-07-06T12:37:13;25.80;45.10
29813;DHT22;16707;48.106;11.548;2022-07-06T12:39:43;25.90;44.20
29813;DHT22;16707;48.106;11.548;2022-07-06T12:42:13;26.20;46.20
29813;DHT22;16707;48.106;11.548;2022-07-06T12:44:45;26.10;44.30
29813;DHT22;16707;48.106;11.548;2022-07-06T12:47:17;26.30;43.70
29813;DHT22;16707;48.106;11.548;2022-07-06T12:50:04;26.10;43.00
29813;DHT22;16707;48.106;11.548;2022-07-06T12:52:32;26.30;44.10
29813;DHT22;16707;48.106;11.548;2022-07-06T12:55:01;26.50;44.20
29813;DHT22;16707;48.106;11.548;2022-07-06T12:57:42;26.00;46.30
29813;DHT22;16707;48.106;11.548;2022-07-06T13:00:11;25.90;46.20
29813;DHT22;16707;48.106;11.548;2022-07-06T13:02:39;25.40;45.20
29813;DHT22;16707;48.106;11.548;2022-07-06T13:05:07;25.10;45.90
29813;DHT22;16707;48.106;11.548;2022-07-06T13:07:37;25.00;46.70
29813;DHT22;16707;48.106;11.548;2022-07-06T13:10:08;24.80;45.80
29813;DHT22;16707;48.106;11.548;2022-07-06T13:12:40;25.10;45.60
29813;DHT22;16707;48.106;11.548;2022-07-06T13:15:08;25.40;48.70
29813;DHT22;16707;48.106;11.548;2022-07-06T13:17:37;25.70;45.00
29813;DHT22;16707;48.106;11.548;2022-07-06T13:20:08;25.80;45.10
29813;DHT22;16707;48.106;11.548;2022-07-06T13:22:38;25.80;45.40
29813;DHT22;16707;48.106;11.548;2022-07-06T13:25:08;25.80;45.40
29813;DHT22;16707;48.106;11.548;2022-07-06T13:27:36;25.70;46.50
29813;DHT22;16707;48.106;11.548;2022-07-06T13:30:04;25.80;45.10
29813;DHT22;16707;48.106;11.548;2022-07-06T13:32:31;25.70;44.00
29813;DHT22;16707;48.106;11.548;2022-07-06T13:34:59;25.40;45.90
29813;DHT22;16707;48.106;11.548;2022-07-06T13:37:26;25.30;45.20
29813;DHT22;16707;48.106;11.548;2022-07-06T13:39:53;25.20;46.40
29813;DHT22;16707;48.106;11.548;2022-07-06T13:42:22;25.30;46.40
29813;DHT22;16707;48.106;11.548;2022-07-06T13:44:49;25.30;47.10
29813;DHT22;16707;48.106;11.548;2022-07-06T13:47:17;25.50;45.40
29813;DHT22;16707;48.106;11.548;2022-07-06T13:49:45;25.50;45.60
29813;DHT22;16707;48.106;11.548;2022-07-06T13:52:13;25.50;44.90
29813;DHT22;16707;48.106;11.548;2022-07-06T13:54:40;25.60;45.00
29813;DHT22;16707;48.106;11.548;2022-07-06T13:57:07;25.80;45.00
29813;DHT22;16707;48.106;11.548;2022-07-06T13:59:39;25.70;45.10
29813;DHT22;16707;48.106;11.548;2022-07-06T14:02:06;25.80;45.90
29813;DHT22;16707;48.106;11.548;2022-07-06T14:04:33;25.80;46.60
29813;DHT22;16707;48.106;11.548;2022-07-06T14:07:01;25.40;46.40
29813;DHT22;16707;48.106;11.548;2022-07-06T14:09:29;25.00;47.50
29813;DHT22;16707;48.106;11.548;2022-07-06T14:11:56;25.20;47.70
29813;DHT22;16707;48.106;11.548;2022-07-06T14:14:23;25.20;47.10
29813;DHT22;16707;48.106;11.548;2022-07-06T14:16:52;25.10;48.00
29813;DHT22;16707;48.106;11.548;2022-07-06T14:19:20;25.00;47.10
29813;DHT22;16707;48.106;11.548;2022-07-06T14:21:47;24.80;46.60
29813;DHT22;16707;48.106;11.548;2022-07-06T14:24:15;24.70;47.40
29813;DHT22;16707;48.106;11.548;2022-07-06T14:26:42;24.80;47.60
29813;DHT22;16707;48.106;11.548;2022-07-06T14:29:10;24.90;43.80
29813;DHT22;16707;48.106;11.548;2022-07-06T14:31:39;25.00;45.20
29813;DHT22;16707;48.106;11.548;2022-07-06T14:34:08;25.00;45.60
29813;DHT22;16707;48.106;11.548;2022-07-06T14:36:35;24.80;43.90
29813;DHT22;16707;48.106;11.548;2022-07-06T14:39:03;24.80;45.30
29813;DHT22;16707;48.106;11.548;2022-07-06T14:41:31;24.80;46.50
29813;DHT22;16707;48.106;11.548;2022-07-06T14:43:58;25.00;44.90
29813;DHT22;16707;48.106;11.548;2022-07-06T14:46:25;25.30;44.00
29813;DHT22;16707;48.106;11.548;2022-07-06T14:48:55;25.30;45.10
29813;DHT22;16707;48.106;11.548;2022-07-06T14:51:24;25.40;44.90
29813;DHT22;16707;48.106;11.548;2022-07-06T14:53:51;25.30;44.00
29813;DHT22;16707;48.106;11.548;2022-07-06T14:56:19;25.20;44.40
29813;DHT22;16707;48.106;11.548;2022-07-06T14:58:46;25.10;45.10
29813;DHT22;16707;48.106;11.548;2022-07-06T15:01:13;24.80;45.40
29813;DHT22;16707;48.106;11.548;2022-07-06T15:03:40;24.60;45.00
29813;DHT22;16707;48.106;11.548;2022-07-06T15:06:08;24.80;45.70
29813;DHT22;16707;48.106;11.548;2022-07-06T15:08:36;25.10;44.80
29813;DHT22;16707;48.106;11.548;2022-07-06T15:11:03;24.90;46.50
29813;DHT22;16707;48.106;11.548;2022-07-06T15:13:37;24.90;46.30
29813;DHT22;16707;48.106;11.548;2022-07-06T15:16:08;24.80;45.90
29813;DHT22;16707;48.106;11.548;2022-07-06T15:18:35;24.90;45.80
29813;DHT22;16707;48.106;11.548;2022-07-06T15:21:02;25.00;45.40
29813;DHT22;16707;48.106;11.548;2022-07-06T15:23:31;25.10;43.70
29813;DHT22;16707;48.106;11.548;2022-07-06T15:26:01;25.20;45.00
29813;DHT22;16707;48.106;11.548;2022-07-06T15:28:37;25.10;44.70
29813;DHT22;16707;48.106;11.548;2022-07-06T15:31:07;24.90;45.40
29813;DHT22;16707;48.106;11.548;2022-07-06T15:33:34;25.10;44.10